Time;durP1;ratioP1;P1;durP2;ratioP2;P2;SDS_P1;SDS_P2;PMS_P1;PMS_P2;Temp;Humidity;BMP_temperature;BMP_pressure;BME280_temperature;BME280_humidity;BME280_pressure;Samples;Min_cycle;Max_cycle;Signal;HPM_P1;HPM_P2
2024/01/29 00:00:08;;;;;;;4.40;2.33;;;;;;;5.68;100.00;103539.81;2087745;28;20405;-62
2024/01/29 00:01:09;;;;;;;4.47;2.80;;;;;;;5.69;100.00;103530.44;2087274;28;20250;-63
2024/01/29 00:02:10;;;;;;;5.72;2.95;;;;;;;5.73;100.00;103531.38;2090617;28;20182;-62
2024/01/29 00:03:11;;;;;;;5.70;2.80;;;;;;;5.77;100.00;103532.34;2092383;28;20461;-62
2024/01/29 00:04:12;;;;;;;4.03;2.93;;;;;;;5.71;100.00;103528.97;2087108;28;20190;-62
2024/01/29 00:05:12;;;;;;;3.80;2.70;;;;;;;5.56;100.00;103532.25;2091511;28;20190;-62
2024/01/29 00:06:13;;;;;;;4.30;2.80;;;;;;;5.63;100.00;103534.50;2087385;28;20573;-62
2024/01/29 00:07:14;;;;;;;6.73;2.60;;;;;;;5.68;100.00;103529.63;2094880;28;20576;-62
2024/01/29 00:08:14;;;;;;;6.50;3.20;;;;;;;5.72;100.00;103538.84;2087448;28;20230;-63
2024/01/29 00:09:14;;;;;;;5.77;2.50;;;;;;;5.72;100.00;103535.28;2088854;28;20283;-62
2024/01/29 00:10:15;;;;;;;5.87;2.83;;;;;;;5.41;100.00;103483.28;2088732;28;20625;-62
2024/01/29 00:11:16;;;;;;;6.23;2.93;;;;;;;5.81;100.00;103545.16;2092520;28;20704;-62
2024/01/29 00:12:16;;;;;;;4.90;2.63;;;;;;;5.21;100.00;103444.69;2092162;28;20749;-63
2024/01/29 00:13:17;;;;;;;5.57;3.17;;;;;;;5.79;100.00;103544.63;2088561;28;20563;-63
2024/01/29 00:14:17;;;;;;;5.63;2.70;;;;;;;5.77;100.00;103540.59;2094886;28;20172;-63
2024/01/29 00:15:18;;;;;;;4.87;2.77;;;;;;;5.85;100.00;103545.31;2088057;28;20629;-63
2024/01/29 00:16:18;;;;;;;4.80;2.90;;;;;;;5.83;100.00;103542.88;2086980;28;20185;-62
2024/01/29 00:17:19;;;;;;;8.83;3.00;;;;;;;5.89;100.00;103547.06;2093104;28;20557;-62
2024/01/29 00:18:19;;;;;;;5.10;2.30;;;;;;;5.90;100.00;103545.91;2089887;28;20742;-63
2024/01/29 00:19:20;;;;;;;3.63;2.53;;;;;;;5.99;100.00;103549.44;2087143;28;20187;-63
2024/01/29 00:20:20;;;;;;;5.30;3.13;;;;;;;5.57;100.00;103503.63;2089197;28;20224;-63
2024/01/29 00:21:21;;;;;;;4.80;2.73;;;;;;;5.89;100.00;103549.81;2091460;28;20187;-63
2024/01/29 00:22:21;;;;;;;5.33;2.93;;;;;;;5.92;100.00;103553.84;2085737;28;20685;-63
2024/01/29 00:23:22;;;;;;;6.00;3.00;;;;;;;5.53;100.00;103494.41;2087330;28;20176;-63
2024/01/29 00:24:23;;;;;;;4.80;2.67;;;;;;;6.00;100.00;103559.31;2087208;28;20196;-63
2024/01/29 00:25:24;;;;;;;4.93;2.42;;;;;;;6.03;100.00;103553.16;2091515;28;20187;-62
2024/01/29 00:26:24;;;;;;;5.57;2.77;;;;;;;6.06;100.00;103555.22;2089368;28;20201;-63
2024/01/29 00:27:26;;;;;;;4.43;2.57;;;;;;;6.03;100.00;103550.41;2087245;28;20291;-62
2024/01/29 00:28:26;;;;;;;6.10;2.92;;;;;;;5.41;100.00;103450.28;2090866;28;20188;-63
2024/01/29 00:30:46;;;;;;;7.95;3.20;;;;;;;5.86;100.00;103542.22;2090110;28;20184;-62
2024/01/29 00:31:46;;;;;;;5.80;3.27;;;;;;;5.95;100.00;103548.47;2086565;28;20184;-63
2024/01/29 00:32:46;;;;;;;2.83;2.10;;;;;;;5.81;100.00;103530.59;2086720;28;20208;-62
2024/01/29 00:33:52;;;;;;;4.73;2.60;;;;;;;6.03;100.00;103566.09;2087467;28;20257;-63
2024/01/29 00:34:53;;;;;;;5.93;2.78;;;;;;;6.10;100.00;103552.63;2089773;28;20193;-63
2024/01/29 00:35:54;;;;;;;5.22;2.95;;;;;;;6.07;100.00;103554.13;2087108;28;20211;-63
2024/01/29 00:36:54;;;;;;;5.40;2.77;;;;;;;5.89;100.00;103538.78;2088500;28;20187;-63
2024/01/29 00:37:55;;;;;;;5.57;2.63;;;;;;;5.38;100.00;103452.88;2094791;28;20187;-62
2024/01/29 00:38:55;;;;;;;8.10;2.87;;;;;;;6.10;100.00;103550.69;2087228;28;20187;-63
2024/01/29 00:39:56;;;;;;;5.17;2.73;;;;;;;5.72;100.00;103494.81;2093739;28;20661;-63
2024/01/29 00:40:56;;;;;;;5.30;2.60;;;;;;;6.18;100.00;103555.34;2087322;28;20244;-62
2024/01/29 00:41:58;;;;;;;6.43;3.07;;;;;;;6.22;100.00;103550.78;2089023;28;20186;-63
2024/01/29 00:42:59;;;;;;;4.43;2.60;;;;;;;6.02;100.00;103524.00;2087397;28;20230;-62
2024/01/29 00:44:00;;;;;;;4.97;2.97;;;;;;;6.25;100.00;103558.38;2086416;28;20214;-63
2024/01/29 00:45:00;;;;;;;5.50;3.10;;;;;;;6.22;100.00;103555.47;2087282;28;20190;-62
2024/01/29 00:46:01;;;;;;;4.07;2.50;;;;;;;5.92;100.00;103538.16;2088493;28;20285;-62
2024/01/29 00:47:02;;;;;;;5.93;2.87;;;;;;;5.97;100.00;103543.47;2087584;28;20180;-62
2024/01/29 00:48:03;;;;;;;6.07;3.05;;;;;;;6.13;100.00;103560.22;2086911;28;20275;-63
2024/01/29 00:49:04;;;;;;;4.80;3.07;;;;;;;6.12;100.00;103561.38;2086731;28;20226;-62
2024/01/29 00:50:05;;;;;;;5.67;3.10;;;;;;;6.14;100.00;103565.41;2088083;28;20609;-62
2024/01/29 00:51:05;;;;;;;4.50;2.58;;;;;;;6.12;100.00;103564.13;2091005;28;20384;-63
2024/01/29 00:52:06;;;;;;;5.30;3.00;;;;;;;6.04;100.00;103565.78;2086581;28;20192;-63
2024/01/29 00:53:07;;;;;;;4.93;2.60;;;;;;;5.77;100.00;103524.09;2087347;28;20183;-62
2024/01/29 00:54:07;;;;;;;4.83;2.83;;;;;;;5.96;100.00;103561.13;2092520;28;20184;-62
2024/01/29 00:55:08;;;;;;;4.57;2.80;;;;;;;5.98;100.00;103567.09;2089782;28;20191;-62
2024/01/29 00:56:08;;;;;;;6.43;3.50;;;;;;;6.03;100.00;103588.13;2092704;28;20196;-62
2024/01/29 00:57:10;;;;;;;6.53;3.20;;;;;;;5.47;100.00;103465.47;2088771;28;20623;-63
2024/01/29 00:58:12;;;;;;;6.80;3.42;;;;;;;6.08;100.00;103568.66;2094249;28;20183;-63
2024/01/29 00:59:12;;;;;;;7.20;3.30;;;;;;;6.13;100.00;103561.03;2091692;28;20220;-62
2024/01/29 01:00:14;;;;;;;4.47;2.80;;;;;;;6.17;100.00;103561.19;2088480;28;20192;-63
2024/01/29 01:01:14;;;;;;;5.50;3.00;;;;;;;6.16;100.00;103570.59;2091041;28;20184;-63
2024/01/29 01:02:15;;;;;;;5.90;3.27;;;;;;;6.04;100.00;103545.69;2093520;28;20504;-63
2024/01/29 01:03:15;;;;;;;4.30;3.10;;;;;;;6.11;100.00;103565.25;2095722;28;20278;-62
2024/01/29 01:04:16;;;;;;;7.70;3.63;;;;;;;6.10;100.00;103560.91;2090590;28;20185;-63
2024/01/29 01:05:17;;;;;;;4.80;3.10;;;;;;;4.97;100.00;103394.97;2089023;28;20188;-62
2024/01/29 01:06:17;;;;;;;6.03;3.40;;;;;;;6.09;100.00;103564.78;2088396;28;20279;-63
2024/01/29 01:07:18;;;;;;;8.60;3.50;;;;;;;6.11;100.00;103554.25;2092395;28;20199;-62
2024/01/29 01:08:18;;;;;;;5.03;2.73;;;;;;;6.14;100.00;103554.38;2088803;28;20246;-63
2024/01/29 01:09:19;;;;;;;6.87;3.53;;;;;;;6.12;100.00;103551.16;2088604;28;20191;-62
2024/01/29 01:10:19;;;;;;;4.30;2.77;;;;;;;6.15;100.00;103547.75;2090565;28;20199;-62
2024/01/29 01:11:20;;;;;;;4.37;2.90;;;;;;;6.08;100.00;103530.13;2093956;28;20183;-63
2024/01/29 01:12:20;;;;;;;6.00;2.97;;;;;;;6.25;100.00;103550.13;2094714;28;20199;-63
2024/01/29 01:13:21;;;;;;;7.37;3.23;;;;;;;6.26;100.00;103548.19;2088743;28;20282;-62
2024/01/29 01:14:21;;;;;;;7.53;3.53;;;;;;;6.24;100.00;103554.00;2092778;28;20574;-62
2024/01/29 01:15:22;;;;;;;7.40;2.73;;;;;;;6.22;100.00;103544.47;2091067;28;20188;-62
2024/01/29 01:16:23;;;;;;;7.40;3.87;;;;;;;6.19;100.00;103553.38;2088280;28;20824;-62
2024/01/29 01:17:23;;;;;;;5.63;3.00;;;;;;;6.16;100.00;103546.59;2088926;28;20184;-62
2024/01/29 01:18:24;;;;;;;6.63;3.93;;;;;;;6.16;100.00;103545.81;2093262;28;20575;-62
2024/01/29 01:19:24;;;;;;;5.03;3.47;;;;;;;5.73;100.00;103477.16;2088088;28;20176;-62
2024/01/29 01:20:25;;;;;;;7.60;3.97;;;;;;;6.22;100.00;103544.47;2087794;28;20187;-62
2024/01/29 01:21:25;;;;;;;4.93;3.30;;;;;;;6.19;100.00;103543.19;2095939;28;20605;-62
2024/01/29 01:22:26;;;;;;;5.17;3.33;;;;;;;6.19;100.00;103534.09;2092406;28;20190;-63
2024/01/29 01:23:26;;;;;;;6.77;3.30;;;;;;;6.17;100.00;103542.72;2090583;28;20191;-63
2024/01/29 01:24:27;;;;;;;6.77;3.10;;;;;;;6.18;100.00;103546.25;2090488;28;20190;-63
2024/01/29 01:25:27;;;;;;;5.13;3.10;;;;;;;6.16;100.00;103541.09;2088305;28;20263;-62
2024/01/29 01:26:28;;;;;;;5.93;2.80;;;;;;;6.18;100.00;103547.09;2088127;28;20201;-63
2024/01/29 01:27:28;;;;;;;6.33;3.57;;;;;;;5.82;100.00;103482.66;2089564;28;20292;-62
2024/01/29 01:28:29;;;;;;;6.73;2.80;;;;;;;6.16;100.00;103541.09;2094968;28;20187;-63
2024/01/29 01:29:29;;;;;;;10.67;3.90;;;;;;;6.18;100.00;103547.09;2089016;28;20267;-62
2024/01/29 01:30:30;;;;;;;5.10;2.80;;;;;;;6.20;100.00;103544.00;2092204;28;20206;-62
2024/01/29 01:31:30;;;;;;;6.43;2.90;;;;;;;6.17;100.00;103545.47;2087883;28;20184;-62
2024/01/29 01:32:31;;;;;;;5.77;3.20;;;;;;;6.21;100.00;103545.63;2091874;28;20566;-62
2024/01/29 01:33:31;;;;;;;7.70;2.73;;;;;;;6.16;100.00;103551.31;2091881;28;20188;-62
2024/01/29 01:34:32;;;;;;;4.60;2.87;;;;;;;6.20;100.00;103549.50;2088208;28;20190;-62
2024/01/29 01:35:32;;;;;;;6.47;4.03;;;;;;;6.19;100.00;103554.19;2088116;28;20176;-62
2024/01/29 01:36:33;;;;;;;5.30;2.87;;;;;;;6.19;100.00;103545.13;2087655;28;20192;-62
2024/01/29 01:37:33;;;;;;;7.00;2.83;;;;;;;5.48;100.00;103433.28;2089013;28;20200;-63
2024/01/29 01:38:34;;;;;;;4.90;2.73;;;;;;;6.19;100.00;103545.94;2087968;28;20579;-63
2024/01/29 01:39:34;;;;;;;7.00;3.20;;;;;;;6.15;100.00;103541.44;2090625;28;20301;-63
2024/01/29 01:40:35;;;;;;;4.30;2.73;;;;;;;6.14;100.00;103548.06;2088365;28;20188;-62
2024/01/29 01:41:36;;;;;;;6.83;2.83;;;;;;;5.54;100.00;103467.72;2087749;28;20192;-62
2024/01/29 01:42:39;;;;;;;6.50;2.60;;;;;;;5.55;100.00;103469.31;2088501;28;20185;-63
2024/01/29 01:43:39;;;;;;;5.00;2.67;;;;;;;6.03;100.00;103550.41;2090045;28;20172;-62
2024/01/29 01:44:40;;;;;;;6.43;3.53;;;;;;;5.62;100.00;103484.16;2088332;28;20177;-62
2024/01/29 01:45:41;;;;;;;7.43;3.83;;;;;;;5.98;100.00;103549.75;2088030;28;20177;-62
2024/01/29 01:46:42;;;;;;;5.53;3.37;;;;;;;5.86;100.00;103544.16;2091498;28;20563;-63
2024/01/29 01:47:43;;;;;;;5.83;3.27;;;;;;;5.97;100.00;103548.97;2088947;28;20280;-62
2024/01/29 01:48:43;;;;;;;5.50;2.78;;;;;;;5.98;100.00;103550.59;2088121;28;20187;-62
2024/01/29 01:49:44;;;;;;;4.67;2.70;;;;;;;5.97;100.00;103557.25;2089900;28;20798;-62
2024/01/29 01:50:45;;;;;;;5.30;3.30;;;;;;;5.95;100.00;103555.94;2091828;28;20189;-62
2024/01/29 01:51:46;;;;;;;5.70;3.07;;;;;;;5.90;100.00;103556.13;2089008;28;20204;-62
2024/01/29 01:52:48;;;;;;;6.53;3.70;;;;;;;5.90;100.00;103556.13;2088420;28;20192;-63
2024/01/29 01:53:54;;;;;;;7.53;3.35;;;;;;;5.82;100.00;103555.03;2089371;28;20190;-63
2024/01/29 01:54:55;;;;;;;6.22;3.30;;;;;;;5.85;100.00;103550.81;2088324;28;20168;-62
2024/01/29 01:57:15;;;;;;;5.32;2.50;;;;;;;5.83;100.00;103550.31;2090456;28;20251;-63
2024/01/29 01:58:18;;;;;;;4.80;2.72;;;;;;;5.57;100.00;103520.13;2087953;28;20281;-62
2024/01/29 01:59:19;;;;;;;6.50;2.47;;;;;;;5.85;100.00;103548.06;2088895;28;20246;-62
2024/01/29 02:00:21;;;;;;;5.13;3.03;;;;;;;5.82;100.00;103554.22;2088020;28;20188;-63
2024/01/29 02:01:22;;;;;;;6.50;3.47;;;;;;;5.76;100.00;103550.81;2089376;28;20201;-62
2024/01/29 02:02:22;;;;;;;5.78;2.90;;;;;;;5.53;100.00;103521.13;2090320;28;20283;-62
2024/01/29 02:03:23;;;;;;;7.40;3.27;;;;;;;5.68;100.00;103548.06;2091661;28;20192;-62
2024/01/29 02:04:23;;;;;;;4.67;2.83;;;;;;;5.60;100.00;103544.19;2087651;28;20590;-62
2024/01/29 02:05:24;;;;;;;6.07;3.20;;;;;;;5.56;100.00;103546.03;2087408;28;20187;-62
2024/01/29 02:06:25;;;;;;;4.87;2.70;;;;;;;5.02;100.00;103477.25;2090044;28;20183;-62
2024/01/29 02:07:25;;;;;;;5.13;2.80;;;;;;;5.52;100.00;103550.56;2088719;28;20182;-63
2024/01/29 02:08:27;;;;;;;6.33;2.87;;;;;;;5.53;100.00;103545.88;2086966;28;20236;-62
2024/01/29 02:09:28;;;;;;;6.35;3.33;;;;;;;5.54;100.00;103547.47;2088154;28;20188;-62
2024/01/29 02:10:28;;;;;;;8.43;2.72;;;;;;;5.60;100.00;103557.16;2088760;28;20195;-62
2024/01/29 02:11:29;;;;;;;4.27;2.53;;;;;;;5.57;100.00;103555.06;2090189;28;20744;-62
2024/01/29 02:12:29;;;;;;;5.43;3.00;;;;;;;5.57;100.00;103552.31;2092903;28;20245;-62
2024/01/29 02:13:31;;;;;;;5.17;3.37;;;;;;;5.52;100.00;103550.56;2087909;28;20716;-62
2024/01/29 02:14:31;;;;;;;5.78;3.03;;;;;;;5.46;100.00;103551.06;2087634;28;20624;-62
2024/01/29 02:15:32;;;;;;;6.67;3.77;;;;;;;5.40;100.00;103544.13;2087246;28;20176;-63
2024/01/29 02:16:32;;;;;;;5.90;3.47;;;;;;;5.33;100.00;103549.31;2089572;28;20680;-62
2024/01/29 02:17:33;;;;;;;7.03;3.90;;;;;;;5.18;100.00;103533.31;2089547;28;20195;-63
2024/01/29 02:18:33;;;;;;;7.20;4.20;;;;;;;5.32;100.00;103545.75;2093265;28;20217;-63
2024/01/29 02:19:34;;;;;;;6.93;3.63;;;;;;;5.16;100.00;103519.91;2090907;28;20184;-62
2024/01/29 02:20:35;;;;;;;7.10;4.23;;;;;;;5.27;100.00;103540.41;2088733;28;20187;-63
2024/01/29 02:21:36;;;;;;;7.45;3.72;;;;;;;5.24;100.00;103548.50;2089666;28;20321;-62
2024/01/29 02:22:43;;;;;;;7.73;4.20;;;;;;;5.22;100.00;103540.59;2089013;28;20231;-63
2024/01/29 02:23:45;;;;;;;6.80;3.22;;;;;;;5.17;100.00;103550.94;2093798;28;20173;-62
2024/01/29 02:24:45;;;;;;;7.70;3.50;;;;;;;5.21;100.00;103540.91;2090570;28;20872;-62
2024/01/29 02:25:46;;;;;;;5.27;3.23;;;;;;;4.53;100.00;103434.63;2088364;28;20183;-62
2024/01/29 02:26:47;;;;;;;10.83;3.40;;;;;;;5.22;100.00;103543.34;2089665;28;20195;-62
2024/01/29 02:27:48;;;;;;;5.50;3.05;;;;;;;5.23;100.00;103549.66;2088293;28;20198;-63
2024/01/29 02:28:48;;;;;;;7.83;3.37;;;;;;;4.71;100.00;103462.88;2086980;28;20288;-62
2024/01/29 02:29:49;;;;;;;8.33;3.37;;;;;;;5.25;100.00;103541.88;2089372;28;20284;-62
2024/01/29 02:30:49;;;;;;;6.40;3.70;;;;;;;5.21;100.00;103546.41;2086981;28;20199;-63
2024/01/29 02:31:50;;;;;;;6.83;3.53;;;;;;;5.17;100.00;103546.25;2087461;28;20221;-62
2024/01/29 02:32:50;;;;;;;8.30;4.07;;;;;;;5.13;100.00;103537.03;2088001;28;20241;-63
2024/01/29 02:33:51;;;;;;;6.23;3.57;;;;;;;5.17;100.00;103543.50;2091925;28;20526;-63
2024/01/29 02:34:52;;;;;;;5.83;3.50;;;;;;;5.15;100.00;103548.53;2092692;28;20192;-62
2024/01/29 02:35:52;;;;;;;6.57;3.65;;;;;;;5.14;100.00;103548.84;2095250;28;20222;-63
2024/01/29 02:36:53;;;;;;;5.80;3.40;;;;;;;5.14;100.00;103548.84;2089606;28;20279;-62
2024/01/29 02:37:53;;;;;;;7.93;4.80;;;;;;;5.18;100.00;103538.81;2087837;28;20222;-63
2024/01/29 02:38:54;;;;;;;4.60;3.27;;;;;;;5.26;100.00;103543.47;2088908;28;20194;-62
2024/01/29 02:39:55;;;;;;;8.10;4.03;;;;;;;4.72;100.00;103467.25;2091110;28;20184;-62
2024/01/29 02:40:56;;;;;;;11.65;3.88;;;;;;;5.28;100.00;103543.97;2087775;28;20191;-63
2024/01/29 02:41:56;;;;;;;10.80;3.50;;;;;;;5.23;100.00;103533.94;2090723;28;20197;-62
2024/01/29 02:42:57;;;;;;;7.30;3.70;;;;;;;5.27;100.00;103559.66;2091786;28;20184;-62
2024/01/29 02:43:58;;;;;;;7.03;3.63;;;;;;;5.26;100.00;103543.47;2088129;28;20211;-63
2024/01/29 02:44:58;;;;;;;13.57;3.63;;;;;;;5.17;100.00;103534.44;2086985;28;20610;-62
2024/01/29 02:45:58;;;;;;;6.67;3.40;;;;;;;5.29;100.00;103551.88;2087520;28;20592;-62
2024/01/29 02:46:59;;;;;;;6.77;3.00;;;;;;;5.27;100.00;103551.41;2087828;28;20192;-62
2024/01/29 02:47:59;;;;;;;6.07;3.20;;;;;;;5.16;100.00;103532.81;2087667;28;20771;-62
2024/01/29 02:49:00;;;;;;;8.63;3.50;;;;;;;4.99;100.00;103513.63;2091275;28;20276;-63
2024/01/29 02:50:01;;;;;;;6.90;3.30;;;;;;;4.65;100.00;103456.75;2087140;28;20245;-63
2024/01/29 02:51:01;;;;;;;10.47;3.40;;;;;;;4.30;100.00;103418.63;2087962;28;20204;-62
2024/01/29 02:52:02;;;;;;;5.03;2.57;;;;;;;4.99;100.00;103533.66;2087245;28;20264;-62
2024/01/29 02:53:02;;;;;;;4.03;2.43;;;;;;;4.83;100.00;103507.00;2087855;28;20193;-63
2024/01/29 02:54:03;;;;;;;4.87;2.77;;;;;;;5.13;100.00;103550.78;2087417;28;20842;-63
2024/01/29 02:55:04;;;;;;;3.93;2.53;;;;;;;5.12;100.00;103545.63;2088774;28;20269;-62
2024/01/29 02:56:05;;;;;;;5.50;2.90;;;;;;;5.17;100.00;103549.00;2088192;28;20614;-63
2024/01/29 02:57:06;;;;;;;7.43;3.27;;;;;;;5.19;100.00;103565.97;2087840;28;20186;-62
2024/01/29 02:58:06;;;;;;;3.80;2.33;;;;;;;5.17;100.00;103560.00;2087629;28;20182;-62
2024/01/29 02:59:07;;;;;;;4.10;2.33;;;;;;;5.21;100.00;103565.66;2087768;28;20202;-63
2024/01/29 03:00:08;;;;;;;7.33;3.27;;;;;;;5.23;100.00;103557.91;2087227;28;20270;-63
2024/01/29 03:01:09;;;;;;;6.73;3.07;;;;;;;5.13;100.00;103556.28;2088129;28;20500;-62
2024/01/29 03:02:09;;;;;;;8.73;2.80;;;;;;;5.07;100.00;103552.09;2091889;28;20356;-62
2024/01/29 03:03:11;;;;;;;5.13;2.23;;;;;;;5.01;100.00;103549.81;2090014;28;20214;-62
2024/01/29 03:04:11;;;;;;;4.70;2.42;;;;;;;5.06;100.00;103553.22;2088337;28;20277;-62
2024/01/29 03:05:12;;;;;;;6.60;2.80;;;;;;;4.96;100.00;103555.47;2087411;28;20180;-62
2024/01/29 03:06:12;;;;;;;7.73;2.70;;;;;;;4.92;100.00;103554.53;2087042;28;20184;-62
2024/01/29 03:07:13;;;;;;;5.67;2.80;;;;;;;4.96;100.00;103569.22;2088223;28;20499;-62
2024/01/29 03:08:13;;;;;;;5.30;3.13;;;;;;;4.94;100.00;103563.25;2093928;28;20584;-62
2024/01/29 03:09:14;;;;;;;5.67;2.73;;;;;;;4.95;100.00;103562.94;2094718;28;20549;-62
2024/01/29 03:10:15;;;;;;;4.57;2.43;;;;;;;5.02;100.00;103566.00;2087528;28;20222;-63
2024/01/29 03:11:15;;;;;;;3.47;2.07;;;;;;;5.01;100.00;103572.63;2089450;28;20447;-62
2024/01/29 03:12:16;;;;;;;4.27;2.50;;;;;;;5.10;100.00;103567.94;2091557;28;20196;-62
2024/01/29 03:13:16;;;;;;;3.90;1.90;;;;;;;5.09;100.00;103571.81;2087504;28;20286;-62
2024/01/29 03:14:17;;;;;;;4.20;2.63;;;;;;;5.07;100.00;103559.53;2086601;28;20185;-62
2024/01/29 03:15:17;;;;;;;3.23;2.10;;;;;;;5.02;100.00;103559.69;2093135;28;20185;-62
2024/01/29 03:16:18;;;;;;;4.03;2.13;;;;;;;5.09;100.00;103573.75;2087606;28;20773;-63
2024/01/29 03:17:18;;;;;;;3.43;1.87;;;;;;;5.13;100.00;103574.72;2087240;28;20584;-63
2024/01/29 03:18:19;;;;;;;3.77;2.00;;;;;;;4.92;100.00;103544.31;2088236;28;20670;-62
2024/01/29 03:19:20;;;;;;;4.63;2.23;;;;;;;5.13;100.00;103572.78;2088539;28;20584;-63
2024/01/29 03:20:21;;;;;;;5.75;2.20;;;;;;;5.07;100.00;103573.28;2086631;28;20221;-62
2024/01/29 03:21:21;;;;;;;4.40;1.77;;;;;;;5.04;100.00;103571.16;2087088;28;20275;-62
2024/01/29 03:22:22;;;;;;;5.63;2.13;;;;;;;5.04;100.00;103566.50;2086668;28;20265;-62
2024/01/29 03:23:22;;;;;;;3.17;1.87;;;;;;;4.94;100.00;103557.75;2087198;28;20180;-62
2024/01/29 03:24:23;;;;;;;5.67;1.97;;;;;;;5.04;100.00;103571.16;2095513;28;20574;-63
2024/01/29 03:25:24;;;;;;;4.37;2.23;;;;;;;4.99;100.00;103569.41;2093268;28;20195;-63
2024/01/29 03:26:24;;;;;;;3.77;2.00;;;;;;;5.05;100.00;103568.09;2088702;28;20191;-62
2024/01/29 03:27:25;;;;;;;3.07;1.63;;;;;;;5.09;100.00;103585.56;2091641;28;20268;-63
2024/01/29 03:28:25;;;;;;;3.17;1.90;;;;;;;5.11;100.00;103571.47;2090457;28;20686;-62
2024/01/29 03:29:26;;;;;;;4.30;1.73;;;;;;;5.15;100.00;103575.19;2086943;28;20682;-63
2024/01/29 03:30:26;;;;;;;3.30;1.97;;;;;;;5.03;100.00;103559.34;2087423;28;20225;-62
2024/01/29 03:31:27;;;;;;;2.67;1.73;;;;;;;5.10;100.00;103578.94;2086387;28;20262;-62
2024/01/29 03:32:27;;;;;;;3.37;1.90;;;;;;;5.10;100.00;103578.94;2087343;28;20181;-63
2024/01/29 03:33:28;;;;;;;3.87;2.13;;;;;;;5.14;100.00;103574.38;2090164;28;20192;-63
2024/01/29 03:34:28;;;;;;;5.03;2.23;;;;;;;5.17;100.00;103579.25;2088517;28;20684;-62
2024/01/29 03:35:29;;;;;;;3.70;2.07;;;;;;;5.16;100.00;103572.13;2086848;28;20538;-63
2024/01/29 03:36:29;;;;;;;5.23;1.80;;;;;;;5.26;100.00;103582.81;2087414;28;20244;-62
2024/01/29 03:37:30;;;;;;;4.73;2.03;;;;;;;5.26;100.00;103573.72;2087497;28;20555;-62
2024/01/29 03:38:32;;;;;;;3.17;1.83;;;;;;;5.16;100.00;103574.88;2086763;28;20262;-62
2024/01/29 03:39:32;;;;;;;3.42;1.95;;;;;;;5.09;100.00;103576.50;2087275;28;20180;-62
2024/01/29 03:40:33;;;;;;;3.10;1.90;;;;;;;4.99;100.00;103568.59;2089649;28;20193;-63
2024/01/29 03:41:34;;;;;;;3.30;2.10;;;;;;;4.94;100.00;103568.75;2087360;28;20186;-62
2024/01/29 03:42:34;;;;;;;4.00;2.38;;;;;;;4.85;100.00;103585.25;2086942;28;20183;-62
2024/01/29 03:43:35;;;;;;;3.97;2.17;;;;;;;4.79;100.00;103577.47;2087158;28;20188;-63
2024/01/29 03:44:35;;;;;;;4.57;2.30;;;;;;;4.17;100.00;103497.25;2090774;28;20221;-63
2024/01/29 03:45:36;;;;;;;5.00;2.17;;;;;;;4.79;100.00;103581.03;2091551;28;20241;-62
2024/01/29 03:46:37;;;;;;;3.10;2.03;;;;;;;4.81;100.00;103580.69;2087514;28;20269;-62
2024/01/29 03:47:37;;;;;;;4.63;2.10;;;;;;;4.82;100.00;103583.13;2087183;28;20181;-62
2024/01/29 03:48:38;;;;;;;3.17;2.10;;;;;;;4.86;100.00;103578.59;2094268;28;20180;-62
2024/01/29 03:49:38;;;;;;;3.03;2.00;;;;;;;4.84;100.00;103552.56;2087668;28;20220;-62
2024/01/29 03:50:39;;;;;;;6.23;2.80;;;;;;;5.08;100.00;103574.91;2087188;28;20217;-63
2024/01/29 03:51:39;;;;;;;3.47;2.07;;;;;;;5.14;100.00;103582.63;2086541;28;20330;-63
2024/01/29 03:52:40;;;;;;;3.30;1.93;;;;;;;5.15;100.00;103575.19;2087612;28;20661;-63
2024/01/29 03:53:40;;;;;;;2.97;2.00;;;;;;;5.12;100.00;103586.88;2090349;28;20212;-62
2024/01/29 03:54:41;;;;;;;3.03;1.87;;;;;;;5.01;100.00;103582.81;2092306;28;20308;-62
2024/01/29 03:55:41;;;;;;;4.87;1.90;;;;;;;4.97;100.00;103584.59;2087132;28;20172;-62
2024/01/29 03:56:42;;;;;;;3.20;2.27;;;;;;;4.94;100.00;103587.97;2087142;28;20259;-63
2024/01/29 03:57:43;;;;;;;2.40;1.53;;;;;;;4.83;100.00;103573.75;2087972;28;20598;-62
2024/01/29 03:58:43;;;;;;;2.90;1.80;;;;;;;4.90;100.00;103579.59;2086932;28;20188;-63
2024/01/29 03:59:44;;;;;;;5.50;2.30;;;;;;;4.89;100.00;103582.66;2087462;28;20199;-63
2024/01/29 04:00:44;;;;;;;4.30;2.17;;;;;;;4.89;100.00;103590.88;2087065;28;20202;-63
2024/01/29 04:01:44;;;;;;;3.60;1.80;;;;;;;4.91;100.00;103581.19;2087525;28;20247;-62
2024/01/29 04:02:46;;;;;;;6.10;2.30;;;;;;;4.92;100.00;103585.56;2091920;28;20205;-62
2024/01/29 04:03:46;;;;;;;2.70;1.63;;;;;;;4.94;100.00;103577.81;2087214;28;20187;-62
2024/01/29 04:04:48;;;;;;;4.47;2.40;;;;;;;4.90;100.00;103582.34;2089248;28;20219;-62
2024/01/29 04:05:48;;;;;;;4.00;1.90;;;;;;;4.92;100.00;103577.31;2087918;28;20189;-63
2024/01/29 04:06:49;;;;;;;4.17;2.10;;;;;;;5.01;100.00;103583.63;2086661;28;20703;-62
2024/01/29 04:07:49;;;;;;;4.03;1.93;;;;;;;4.83;100.00;103551.75;2087028;28;20228;-62
2024/01/29 04:08:50;;;;;;;2.90;2.20;;;;;;;5.10;100.00;103591.88;2088194;28;20201;-62
2024/01/29 04:09:50;;;;;;;3.00;1.70;;;;;;;5.03;100.00;103589.59;2093579;28;20615;-62
2024/01/29 04:10:51;;;;;;;3.40;1.83;;;;;;;5.05;100.00;103587.34;2092278;28;20259;-62
2024/01/29 04:11:51;;;;;;;4.77;2.47;;;;;;;5.05;100.00;103592.84;2086528;28;20188;-62
2024/01/29 04:12:52;;;;;;;2.77;1.97;;;;;;;5.11;100.00;103585.22;2086602;28;20268;-63
2024/01/29 04:13:52;;;;;;;4.33;2.50;;;;;;;5.16;100.00;103585.88;2087127;28;20194;-62
2024/01/29 04:14:53;;;;;;;2.70;1.87;;;;;;;5.17;100.00;103597.66;2093342;28;20184;-62
2024/01/29 04:15:53;;;;;;;3.43;2.07;;;;;;;5.22;100.00;103586.50;2092721;28;20211;-63
2024/01/29 04:16:54;;;;;;;4.40;2.00;;;;;;;5.04;100.00;103561.00;2091411;28;20644;-63
2024/01/29 04:17:55;;;;;;;3.23;2.07;;;;;;;5.26;100.00;103590.22;2094749;28;20259;-63
2024/01/29 04:18:55;;;;;;;5.10;2.37;;;;;;;5.30;100.00;103600.28;2089417;28;20201;-63
2024/01/29 04:19:56;;;;;;;2.67;1.77;;;;;;;5.29;100.00;103600.59;2091277;28;20191;-62
2024/01/29 04:20:56;;;;;;;3.80;2.10;;;;;;;5.30;100.00;103589.28;2086715;28;20658;-63
2024/01/29 04:21:57;;;;;;;2.63;1.57;;;;;;;5.29;100.00;103603.34;2086297;28;20278;-62
2024/01/29 04:22:57;;;;;;;2.83;2.03;;;;;;;5.31;100.00;103610.13;2090797;28;20215;-62
2024/01/29 04:23:58;;;;;;;5.23;2.47;;;;;;;5.29;100.00;103603.34;2087590;28;20201;-62
2024/01/29 04:25:04;;;;;;;4.67;2.10;;;;;;;5.27;100.00;103606.41;2087251;28;20741;-62
2024/01/29 04:26:04;;;;;;;2.67;1.83;;;;;;;5.25;100.00;103605.94;2086662;28;20196;-63
2024/01/29 04:27:05;;;;;;;3.30;2.00;;;;;;;5.21;100.00;103607.72;2086810;28;20240;-62
2024/01/29 04:28:05;;;;;;;4.77;2.80;;;;;;;5.09;100.00;103587.50;2087242;28;20204;-63
2024/01/29 04:29:08;;;;;;;5.07;2.00;;;;;;;5.19;100.00;103604.47;2088265;28;20216;-63
2024/01/29 04:30:09;;;;;;;4.80;2.03;;;;;;;5.27;100.00;103616.59;2089670;28;20199;-63
2024/01/29 04:31:10;;;;;;;2.55;1.50;;;;;;;5.31;100.00;103607.38;2089234;28;20333;-62
2024/01/29 04:32:10;;;;;;;4.30;1.97;;;;;;;5.24;100.00;103606.25;2097030;28;20237;-63
2024/01/29 04:33:11;;;;;;;4.57;2.13;;;;;;;5.28;100.00;103610.78;2093324;28;20186;-62
2024/01/29 04:34:11;;;;;;;3.20;1.97;;;;;;;5.28;100.00;103619.03;2092731;28;20211;-63
2024/01/29 04:35:12;;;;;;;4.97;2.40;;;;;;;5.18;100.00;103605.59;2088928;28;20191;-63
2024/01/29 04:36:15;;;;;;;4.50;1.93;;;;;;;5.26;100.00;103629.56;2088566;28;20219;-62
2024/01/29 04:37:16;;;;;;;6.47;2.28;;;;;;;5.03;100.00;103581.34;2088477;28;20279;-62
2024/01/29 04:38:16;;;;;;;1.97;1.37;;;;;;;5.27;100.00;103616.59;2087907;28;20277;-62
2024/01/29 04:39:17;;;;;;;2.93;1.90;;;;;;;4.69;100.00;103537.38;2088431;28;20199;-62
2024/01/29 04:40:17;;;;;;;3.63;1.83;;;;;;;5.27;100.00;103617.41;2094135;28;20325;-62
2024/01/29 04:41:22;;;;;;;4.17;2.40;;;;;;;5.31;100.00;103617.56;2089374;28;20198;-62
2024/01/29 04:42:22;;;;;;;3.60;1.73;;;;;;;5.34;100.00;103617.72;2089291;28;20658;-62
2024/01/29 04:43:23;;;;;;;3.87;2.17;;;;;;;5.33;100.00;103618.84;2089084;28;20745;-63
2024/01/29 04:44:24;;;;;;;4.37;2.13;;;;;;;5.26;100.00;103599.31;2088557;28;20544;-62